Time;durP1;ratioP1;P1;durP2;ratioP2;P2;SDS_P1;SDS_P2;PMS_P1;PMS_P2;Temp;Humidity;BMP_temperature;BMP_pressure;BME280_temperature;BME280_humidity;BME280_pressure;Samples;Min_cycle;Max_cycle;Signal;HPM_P1;HPM_P2
2023/08/22 00:03:38;;;;;;;;;;;24.80;43.90;;;24.21;43.49;101746.69;12143620;19;20662;-86
2023/08/22 00:07:41;;;;;;;;;;;24.80;43.90;;;24.22;43.56;101731.50;12139082;19;19923;-86
2023/08/22 00:11:42;;;;;;;;;;;24.80;44.00;;;24.17;43.51;101723.09;12141706;19;20803;-86
2023/08/22 00:15:46;;;;;;;;;;;24.80;44.20;;;24.19;43.81;101737.97;12133565;19;20368;-87
2023/08/22 00:19:48;;;;;;;;;;;24.80;44.20;;;24.17;43.83;101734.63;12138901;19;19951;-86
2023/08/22 00:23:49;;;;;;;;;;;24.70;44.60;;;24.14;43.90;101742.94;12141182;19;20186;-86
2023/08/22 00:27:51;;;;;;;;;;;24.70;44.40;;;24.12;43.38;101746.75;12134808;19;19923;-86
2023/08/22 00:31:52;;;;;;;;;;;24.70;44.10;;;24.06;43.73;101732.13;12137655;19;19930;-86
2023/08/22 00:35:54;;;;;;;;;;;24.70;44.20;;;24.09;43.97;101739.88;12135034;19;20164;-87
2023/08/22 00:39:55;;;;;;;;;;;24.70;44.40;;;23.94;43.61;101722.66;12137729;19;20450;-86
2023/08/22 00:43:57;;;;;;;;;;;24.70;44.30;;;24.12;43.76;101744.06;12138251;19;19926;-86
2023/08/22 00:47:58;;;;;;;;;;;24.70;44.30;;;24.10;43.99;101730.88;12136541;19;20013;-87
2023/08/22 00:52:03;;;;;;;;;;;24.70;44.30;;;24.07;43.72;101728.50;12136343;19;20014;-86
2023/08/22 00:56:04;;;;;;;;;;;24.60;44.30;;;24.08;43.68;101730.16;12135655;19;19937;-86
2023/08/22 01:00:08;;;;;;;;;;;24.70;44.60;;;24.06;44.16;101714.31;12138178;19;19933;-86
2023/08/22 01:04:09;;;;;;;;;;;24.70;44.40;;;23.92;44.23;101693.44;12138349;19;19922;-86
2023/08/22 01:08:19;;;;;;;;;;;24.70;44.60;;;24.08;44.01;101714.16;12140284;19;19915;-86
2023/08/22 01:12:43;;;;;;;;;;;24.70;44.80;;;24.06;43.87;101724.13;12138421;19;19914;-87
2023/08/22 01:16:46;;;;;;;;;;;24.70;44.80;;;23.84;43.88;101699.56;12132211;19;19990;-86
2023/08/22 01:20:47;;;;;;;;;;;24.60;45.20;;;24.00;44.10;101727.41;12136983;19;20013;-87
2023/08/22 01:24:49;;;;;;;;;;;24.60;44.60;;;23.98;44.18;101708.03;12136057;19;19925;-86
2023/08/22 01:28:55;;;;;;;;;;;24.60;44.70;;;23.97;43.97;101709.03;12151743;19;20349;-86
2023/08/22 01:33:03;;;;;;;;;;;24.60;44.70;;;23.92;44.09;101705.97;12148462;19;19922;-86
2023/08/22 01:37:07;;;;;;;;;;;24.60;44.70;;;23.98;44.14;101714.22;12138879;19;20705;-86
2023/08/22 01:41:08;;;;;;;;;;;24.60;44.80;;;23.82;43.93;101688.19;12150146;19;20008;-86
2023/08/22 01:45:10;;;;;;;;;;;24.50;44.50;;;23.54;44.22;101638.44;12147493;19;20274;-86
2023/08/22 01:49:11;;;;;;;;;;;24.50;44.80;;;23.90;44.45;101705.25;12147602;19;20659;-86
2023/08/22 01:53:13;;;;;;;;;;;24.50;44.80;;;23.86;44.46;101699.38;12147033;19;19938;-86
2023/08/22 01:57:15;;;;;;;;;;;24.50;45.10;;;23.80;44.67;101700.81;12144895;19;19923;-86
2023/08/22 02:01:17;;;;;;;;;;;24.40;44.80;;;23.89;44.65;101707.09;12147562;19;19923;-86
2023/08/22 02:05:19;;;;;;;;;;;24.40;44.70;;;23.78;44.54;101692.13;12145333;19;19964;-86
2023/08/22 02:09:21;;;;;;;;;;;24.40;44.80;;;23.87;44.76;101710.91;12146358;19;20299;-86
2023/08/22 02:13:23;;;;;;;;;;;24.40;45.10;;;23.82;44.49;101688.19;12150248;19;20203;-86
2023/08/22 02:17:24;;;;;;;;;;;24.40;44.80;;;23.75;44.64;101676.41;12141967;19;19923;-86
2023/08/22 02:21:26;;;;;;;;;;;24.40;45.00;;;23.78;44.60;101691.28;12148989;19;19926;-86
2023/08/22 02:25:27;;;;;;;;;;;24.40;44.80;;;23.82;44.86;101688.19;12143926;19;19926;-86
2023/08/22 02:29:29;;;;;;;;;;;24.40;45.10;;;23.82;44.59;101687.34;12148169;19;19923;-86
2023/08/22 02:33:31;;;;;;;;;;;24.40;45.10;;;23.80;44.61;101706.16;12147672;19;19922;-86
2023/08/22 02:37:35;;;;;;;;;;;24.40;45.10;;;23.80;44.89;101694.66;12139098;19;19934;-86
2023/08/22 02:41:36;;;;;;;;;;;24.30;45.00;;;23.69;44.57;101671.66;12146092;19;19946;-87
2023/08/22 02:45:38;;;;;;;;;;;24.30;45.00;;;23.75;44.89;101696.91;12143405;19;20187;-86
2023/08/22 02:49:40;;;;;;;;;;;24.30;45.00;;;23.70;44.62;101670.66;12145192;19;20231;-86
2023/08/22 02:53:43;;;;;;;;;;;24.30;45.10;;;23.72;44.98;101676.72;12146511;19;19918;-87
2023/08/22 02:57:45;;;;;;;;;;;24.30;45.10;;;23.73;44.65;101677.53;12141903;19;19938;-86
2023/08/22 03:01:46;;;;;;;;;;;24.30;45.00;;;23.71;44.67;101680.38;12144777;19;20279;-87
2023/08/22 03:05:48;;;;;;;;;;;24.30;45.10;;;23.71;45.11;101669.72;12141445;19;19934;-86
2023/08/22 03:09:51;;;;;;;;;;;24.30;45.10;;;23.66;44.66;101647.94;12142405;19;19918;-87
2023/08/22 03:13:54;;;;;;;;;;;24.30;45.00;;;23.63;44.99;101656.25;12139365;19;20305;-87
2023/08/22 03:17:55;;;;;;;;;;;24.30;45.00;;;23.66;45.22;101665.78;12138578;19;19927;-86
2023/08/22 03:21:58;;;;;;;;;;;24.30;45.00;;;23.68;45.21;101664.59;12140642;19;19923;-86
2023/08/22 03:26:02;;;;;;;;;;;24.30;45.10;;;23.60;44.95;101660.03;12136441;19;19930;-86
2023/08/22 03:30:06;;;;;;;;;;;24.20;45.10;;;23.56;45.22;101658.63;12141358;19;20282;-86
2023/08/22 03:34:10;;;;;;;;;;;24.20;45.00;;;23.59;45.29;101668.16;12139199;19;20740;-86
2023/08/22 03:38:12;;;;;;;;;;;24.20;45.00;;;23.44;45.22;101649.16;12141386;19;19939;-86
2023/08/22 03:42:14;;;;;;;;;;;24.10;45.00;;;23.51;45.17;101666.22;12142947;19;19923;-87
2023/08/22 03:46:15;;;;;;;;;;;24.10;45.30;;;23.43;44.83;101655.47;12138901;19;19929;-86
2023/08/22 03:50:17;;;;;;;;;;;24.10;45.30;;;23.27;45.17;101634.75;12139480;19;19930;-86
2023/08/22 03:54:18;;;;;;;;;;;24.10;45.20;;;23.34;44.93;101661.69;12139954;19;19926;-86
2023/08/22 03:58:21;;;;;;;;;;;24.00;45.30;;;23.30;45.36;101658.44;12139063;19;20354;-87
2023/08/22 04:02:22;;;;;;;;;;;24.00;45.20;;;23.36;45.20;101655.22;12135940;19;19931;-86
2023/08/22 04:06:23;;;;;;;;;;;24.00;45.10;;;23.32;45.45;101631.66;12137947;19;19958;-87
2023/08/22 04:10:25;;;;;;;;;;;24.00;45.30;;;23.31;44.93;101627.31;12140846;19;19926;-87
2023/08/22 04:14:26;;;;;;;;;;;24.00;45.30;;;23.28;45.43;101625.78;12138261;19;20315;-87
2023/08/22 04:18:30;;;;;;;;;;;23.90;45.20;;;23.18;45.33;101624.97;12141045;19;19964;-87
2023/08/22 04:22:31;;;;;;;;;;;23.90;45.30;;;23.27;45.21;101644.56;12140671;19;19925;-86
2023/08/22 04:26:33;;;;;;;;;;;23.90;45.40;;;23.17;45.07;101620.63;12136372;19;19922;-86
2023/08/22 04:30:34;;;;;;;;;;;23.90;45.30;;;23.23;45.17;101628.03;12136093;19;19946;-86
2023/08/22 04:34:37;;;;;;;;;;;23.90;45.30;;;23.22;45.44;101621.00;12135518;19;19922;-87
2023/08/22 04:38:40;;;;;;;;;;;23.80;45.30;;;23.19;45.05;101635.47;12144670;19;20318;-87
2023/08/22 04:42:43;;;;;;;;;;;23.80;45.50;;;23.06;45.55;101616.31;12146307;19;19927;-87
2023/08/22 04:46:46;;;;;;;;;;;23.80;45.50;;;23.07;45.62;101615.31;12163092;19;20199;-87
2023/08/22 04:50:49;;;;;;;;;;;23.80;45.50;;;23.16;45.19;101621.59;12163058;19;19927;-87
2023/08/22 04:54:50;;;;;;;;;;;23.80;45.70;;;23.10;45.58;101603.53;12152928;19;19936;-87
2023/08/22 04:58:52;;;;;;;;;;;23.80;45.70;;;23.04;45.53;101586.31;12156225;19;20024;-87
2023/08/22 05:02:54;;;;;;;;;;;23.80;45.60;;;23.08;45.52;101590.34;12176083;19;19945;-87
2023/08/22 05:06:55;;;;;;;;;;;23.80;45.60;;;23.09;45.44;101588.53;12177535;19;20260;-87
2023/08/22 05:10:57;;;;;;;;;;;23.80;45.60;;;23.13;45.88;101598.75;12179618;19;19915;-86
2023/08/22 05:15:00;;;;;;;;;;;23.80;45.70;;;23.16;45.82;101600.28;12150983;19;19922;-85
2023/08/22 05:19:02;;;;;;;;;;;23.80;46.50;;;23.15;45.49;101599.44;12144426;19;20002;-85
2023/08/22 05:23:05;;;;;;;;;;;23.90;45.80;;;23.23;45.85;101604.06;12144253;19;19923;-85
2023/08/22 05:27:07;;;;;;;;;;;23.90;45.60;;;23.21;45.71;101591.84;12139837;19;20314;-85
2023/08/22 05:31:09;;;;;;;;;;;23.90;45.80;;;23.17;45.85;101584.16;12145252;19;19927;-85
2023/08/22 05:35:12;;;;;;;;;;;23.90;46.00;;;23.24;45.78;101587.06;12143084;19;19940;-85
2023/08/22 05:39:14;;;;;;;;;;;24.00;45.60;;;23.25;45.98;101580.78;12145357;19;19926;-85
2023/08/22 05:43:16;;;;;;;;;;;24.00;45.70;;;23.27;45.56;101600.09;12145174;19;20294;-85
2023/08/22 05:47:17;;;;;;;;;;;23.90;45.80;;;23.24;45.66;101583.56;12140733;19;20743;-85
2023/08/22 05:51:19;;;;;;;;;;;23.90;45.50;;;23.17;45.78;101588.66;12146737;19;19918;-87
2023/08/22 05:55:21;;;;;;;;;;;24.00;45.60;;;23.22;45.96;101586.38;12154134;19;19926;-87
2023/08/22 05:59:23;;;;;;;;;;;24.00;45.70;;;23.25;46.00;101586.09;12158013;19;20215;-86
2023/08/22 06:03:25;;;;;;;;;;;24.00;45.80;;;23.26;46.06;101589.59;12163447;19;19919;-87
2023/08/22 06:07:27;;;;;;;;;;;24.00;45.70;;;23.28;46.19;101588.47;12156836;19;19915;-87
2023/08/22 06:11:29;;;;;;;;;;;24.00;45.70;;;23.37;45.88;101602.72;12158454;19;19927;-87
2023/08/22 06:15:30;;;;;;;;;;;24.00;45.80;;;23.40;46.21;101603.28;12136767;19;19919;-87
2023/08/22 06:19:32;;;;;;;;;;;24.10;46.40;;;23.35;46.29;101591.38;12148482;19;19927;-87
2023/08/22 06:23:33;;;;;;;;;;;24.10;46.00;;;23.47;46.19;101605.38;12148083;19;20187;-87
2023/08/22 06:27:35;;;;;;;;;;;24.10;46.00;;;23.52;46.28;101600.41;12145283;19;19923;-87
2023/08/22 06:31:37;;;;;;;;;;;24.20;45.70;;;23.57;45.86;101609.66;12142749;19;19991;-88
2023/08/22 06:35:39;;;;;;;;;;;24.30;45.70;;;23.49;45.84;101590.03;12143645;19;19926;-87
2023/08/22 06:39:40;;;;;;;;;;;24.30;45.80;;;23.60;45.86;101593.38;12141592;19;19922;-87
2023/08/22 06:43:42;;;;;;;;;;;24.40;45.80;;;23.65;45.88;101592.91;12132993;19;19919;-88
2023/08/22 06:47:44;;;;;;;;;;;24.40;45.70;;;23.37;46.36;101536.94;12129092;19;19922;-88
2023/08/22 06:51:46;;;;;;;;;;;24.40;45.50;;;23.72;46.35;101579.84;12146312;19;20886;-87
2023/08/22 06:55:48;;;;;;;;;;;24.50;45.60;;;23.63;46.00;101545.06;12151350;19;19931;-89
2023/08/22 06:59:49;;;;;;;;;;;24.50;45.80;;;23.68;46.00;101530.44;12153560;19;19931;-87
2023/08/22 07:03:51;;;;;;;;;;;24.50;45.80;;;23.76;46.26;101536.75;12153847;19;19922;-87
2023/08/22 07:07:52;;;;;;;;;;;24.60;45.60;;;23.91;46.07;101557.53;12142423;19;19949;-88
2023/08/22 07:11:54;;;;;;;;;;;24.70;45.70;;;24.00;46.22;101561.97;12153440;19;19915;-88
2023/08/22 07:15:56;;;;;;;;;;;24.70;45.60;;;24.07;46.24;101563.88;12146122;19;19930;-87
2023/08/22 07:19:58;;;;;;;;;;;24.80;45.50;;;24.22;46.44;101571.34;12150074;19;19919;-87
2023/08/22 07:23:59;;;;;;;;;;;24.90;45.60;;;24.26;46.25;101565.53;12146880;19;20351;-88
2023/08/22 07:28:01;;;;;;;;;;;25.10;45.40;;;24.33;46.30;101557.78;12145366;19;19942;-87
2023/08/22 07:32:03;;;;;;;;;;;25.10;45.30;;;24.43;46.36;101563.00;12147622;19;20026;-88
2023/08/22 07:36:05;;;;;;;;;;;25.20;45.30;;;24.23;46.13;101531.16;12143866;19;20275;-89
2023/08/22 07:40:06;;;;;;;;;;;25.30;45.40;;;24.61;46.02;101571.03;12142381;19;20760;-88
2023/08/22 07:44:08;;;;;;;;;;;25.40;45.40;;;24.46;46.38;101514.66;12123500;19;20381;-87
2023/08/22 07:48:10;;;;;;;;;;;25.50;45.60;;;24.72;46.20;101536.88;12129231;19;19929;-87
2023/08/22 07:52:11;;;;;;;;;;;25.50;45.40;;;24.84;45.91;101553.47;12135870;19;19930;-88
2023/08/22 07:56:13;;;;;;;;;;;25.60;45.50;;;24.95;46.11;101549.69;12136363;19;19919;-88
2023/08/22 08:00:16;;;;;;;;;;;25.70;45.50;;;25.00;46.16;101550.06;12134740;19;19923;-88
2023/08/22 08:04:20;;;;;;;;;;;25.90;45.60;;;25.02;46.11;101532.03;12134622;19;19923;-87
2023/08/22 08:08:21;;;;;;;;;;;25.90;45.40;;;25.20;46.45;101534.66;12134578;19;19919;-87
2023/08/22 08:12:23;;;;;;;;;;;26.00;45.40;;;25.22;45.70;101532.66;12135961;19;19919;-87
2023/08/22 08:16:25;;;;;;;;;;;26.10;45.40;;;25.34;46.21;101535.88;12133240;19;19922;-88
2023/08/22 08:20:26;;;;;;;;;;;26.10;45.40;;;25.36;46.04;101515.16;12136378;19;20852;-87
2023/08/22 08:24:27;;;;;;;;;;;26.30;45.50;;;25.53;46.02;101532.09;12137219;19;20442;-87
2023/08/22 08:28:30;;;;;;;;;;;26.30;45.20;;;25.60;46.08;101533.97;12142807;19;19922;-85
2023/08/22 08:32:32;;;;;;;;;;;26.40;45.30;;;25.70;45.78;101535.63;12141121;19;20379;-86
2023/08/22 08:36:33;;;;;;;;;;;26.60;45.30;;;25.76;46.32;101518.91;12136502;19;19950;-86
2023/08/22 08:40:36;;;;;;;;;;;26.70;45.00;;;25.89;46.03;101535.34;12137855;19;19929;-87
2023/08/22 08:44:38;;;;;;;;;;;26.70;45.00;;;25.96;46.10;101530.19;12136893;19;20278;-87
2023/08/22 08:48:40;;;;;;;;;;;26.80;45.00;;;26.00;45.97;101529.69;12137515;19;20674;-87
2023/08/22 08:52:45;;;;;;;;;;;26.90;45.00;;;26.08;45.87;101523.50;12139114;19;19923;-87
2023/08/22 08:56:46;;;;;;;;;;;26.90;45.20;;;26.17;45.66;101527.03;12137313;19;19931;-87
2023/08/22 09:00:49;;;;;;;;;;;27.00;44.90;;;26.22;46.11;101517.50;12127430;19;20765;-87
2023/08/22 09:04:50;;;;;;;;;;;27.10;44.90;;;26.25;45.78;101502.94;12133959;19;19937;-86
2023/08/22 09:09:08;;;;;;;;;;;27.20;45.10;;;26.38;45.80;101508.63;12136389;19;19930;-86
2023/08/22 09:13:10;;;;;;;;;;;27.20;44.90;;;26.45;45.82;101498.88;12131300;19;20215;-85
2023/08/22 09:17:15;;;;;;;;;;;27.20;45.20;;;26.31;45.62;101456.72;12134357;19;20282;-84
2023/08/22 09:21:17;;;;;;;;;;;27.30;45.20;;;26.60;45.83;101493.69;12135555;19;19915;-85
2023/08/22 09:25:18;;;;;;;;;;;27.40;45.20;;;26.45;45.66;101449.81;12131742;19;19926;-85
2023/08/22 09:29:30;;;;;;;;;;;27.50;44.30;;;26.75;45.75;101493.81;12137952;19;19915;-85
2023/08/22 09:33:45;;;;;;;;;;;27.60;44.70;;;26.59;45.63;101457.19;12139566;19;19927;-85
2023/08/22 09:37:47;;;;;;;;;;;27.70;44.80;;;26.83;45.81;101491.09;12134428;19;19922;-85
2023/08/22 09:41:54;;;;;;;;;;;27.70;45.00;;;27.02;45.75;101497.06;12136474;19;20420;-85
2023/08/22 09:45:55;;;;;;;;;;;27.80;44.70;;;27.10;45.60;101491.66;12136458;19;19922;-85
2023/08/22 09:50:04;;;;;;;;;;;27.90;45.00;;;27.20;45.31;101500.38;12147542;19;19922;-85
2023/08/22 09:54:05;;;;;;;;;;;28.00;44.70;;;27.19;45.63;101487.13;12150201;19;19923;-85
2023/08/22 09:58:07;;;;;;;;;;;28.10;44.90;;;27.12;45.50;101452.94;12148421;19;20219;-85
2023/08/22 10:02:09;;;;;;;;;;;28.10;44.60;;;27.31;45.40;101461.59;12149776;19;20260;-85
2023/08/22 10:06:12;;;;;;;;;;;28.20;44.50;;;27.40;45.36;101473.94;12144990;19;20215;-85
2023/08/22 10:10:13;;;;;;;;;;;28.20;44.20;;;27.38;45.44;101457.19;12151667;19;19934;-84
2023/08/22 10:14:35;;;;;;;;;;;28.30;43.90;;;27.56;45.46;101463.09;12145029;19;20709;-85
2023/08/22 10:18:38;;;;;;;;;;;28.30;44.60;;;27.56;45.77;101444.31;12143746;19;19922;-84
2023/08/22 10:22:39;;;;;;;;;;;28.40;44.40;;;27.83;45.46;101470.81;12143670;19;20196;-84
2023/08/22 10:27:09;;;;;;;;;;;28.60;44.60;;;27.90;45.38;101461.88;12140022;19;19929;-85
2023/08/22 10:31:11;;;;;;;;;;;28.70;43.90;;;27.87;45.16;101445.28;12146703;19;20180;-88
2023/08/22 10:35:16;;;;;;;;;;;28.80;44.40;;;28.12;45.25;101467.41;12146930;19;19926;-88
2023/08/22 10:39:39;;;;;;;;;;;28.90;43.90;;;28.12;45.17;101453.97;12153247;19;20280;-88
2023/08/22 10:43:40;;;;;;;;;;;29.00;44.00;;;28.19;45.13;101455.75;12151039;19;19943;-88
2023/08/22 10:47:42;;;;;;;;;;;29.10;44.30;;;28.21;45.21;101436.75;12146952;19;19947;-89
2023/08/22 10:51:43;;;;;;;;;;;29.20;44.00;;;28.35;44.89;101443.97;12147659;19;19938;-87
2023/08/22 10:55:46;;;;;;;;;;;29.20;44.10;;;28.36;44.79;101434.09;12143877;19;20267;-87
2023/08/22 11:00:00;;;;;;;;;;;29.30;43.10;;;28.42;44.62;101446.78;12145360;19;20922;-87
2023/08/22 11:04:01;;;;;;;;;;;29.30;43.50;;;28.50;45.15;101449.41;12150461;19;19926;-88
2023/08/22 11:08:04;;;;;;;;;;;29.40;44.00;;;28.48;44.85;101431.78;12150753;19;20010;-88
2023/08/22 11:12:22;;;;;;;;;;;29.40;43.40;;;28.64;44.72;101448.56;12146914;19;19926;-87
2023/08/22 11:16:24;;;;;;;;;;;29.40;43.80;;;28.63;44.89;101438.00;12147926;19;19926;-88
2023/08/22 11:20:26;;;;;;;;;;;29.60;43.70;;;28.71;44.75;101447.84;12146945;19;19941;-88
2023/08/22 11:24:27;;;;;;;;;;;29.60;40.70;;;28.68;44.61;101441.81;12150292;19;19942;-88
2023/08/22 11:28:33;;;;;;;;;;;29.60;41.30;;;28.56;44.61;101415.56;12147641;19;19926;-87
2023/08/22 11:32:38;;;;;;;;;;;29.60;42.80;;;28.80;44.28;101457.44;12148769;19;19914;-87
2023/08/22 11:36:40;;;;;;;;;;;29.60;42.60;;;28.86;44.30;101456.69;12145186;19;20646;-87
2023/08/22 11:40:44;;;;;;;;;;;29.60;42.20;;;28.90;44.02;101460.69;12143997;19;19923;-87
2023/08/22 11:45:02;;;;;;;;;;;29.70;42.70;;;28.95;44.09;101457.41;12143448;19;19926;-87
2023/08/22 11:49:07;;;;;;;;;;;29.70;42.50;;;28.95;43.96;101468.16;12149411;19;19923;-86
2023/08/22 11:53:15;;;;;;;;;;;29.70;43.10;;;28.84;44.10;101456.91;12148241;19;19931;-87
2023/08/22 11:57:17;;;;;;;;;;;29.70;43.40;;;28.93;44.07;101456.78;12146283;19;19926;-87
2023/08/22 12:01:23;;;;;;;;;;;29.70;43.10;;;28.99;44.35;101462.25;12141758;19;19930;-86
2023/08/22 12:05:36;;;;;;;;;;;29.70;42.80;;;28.91;44.08;101462.34;12147062;19;19941;-86
2023/08/22 12:09:38;;;;;;;;;;;29.70;43.10;;;28.93;43.97;101452.25;12135286;19;20930;-86
2023/08/22 12:13:43;;;;;;;;;;;29.70;42.90;;;28.97;43.92;101472.34;12143716;19;20635;-86
2023/08/22 12:17:44;;;;;;;;;;;29.70;43.00;;;28.93;43.97;101464.88;12138228;19;20295;-87
2023/08/22 12:21:45;;;;;;;;;;;29.70;43.20;;;28.97;44.36;101469.66;12139121;19;20030;-87
2023/08/22 12:25:47;;;;;;;;;;;29.70;43.50;;;28.86;44.00;101452.16;12134999;19;19934;-88
2023/08/22 12:29:49;;;;;;;;;;;29.70;42.70;;;29.03;44.15;101482.38;12136151;19;20278;-87
2023/08/22 12:33:50;;;;;;;;;;;29.80;43.00;;;29.08;44.03;101482.69;12140766;19;19936;-87
2023/08/22 12:37:52;;;;;;;;;;;29.80;43.20;;;29.15;43.56;101490.00;12139333;19;20814;-86
2023/08/22 12:41:53;;;;;;;;;;;29.80;43.40;;;29.10;43.43;101483.31;12139058;19;19923;-86
2023/08/22 12:45:55;;;;;;;;;;;29.80;42.50;;;29.10;43.66;101490.53;12127977;19;20336;-86
2023/08/22 12:49:56;;;;;;;;;;;29.80;43.00;;;29.11;43.56;101482.31;12135621;19;19927;-87
2023/08/22 12:53:58;;;;;;;;;;;29.80;43.30;;;29.07;43.69;101469.41;12136384;19;19918;-88
2023/08/22 12:57:59;;;;;;;;;;;29.80;43.20;;;29.14;43.70;101480.22;12134748;19;19919;-87
2023/08/22 13:02:01;;;;;;;;;;;29.80;43.40;;;29.08;43.51;101466.53;12140962;19;19951;-87
2023/08/22 13:06:03;;;;;;;;;;;29.80;43.40;;;29.05;43.72;101466.88;12138135;19;20009;-87
2023/08/22 13:10:05;;;;;;;;;;;29.90;43.40;;;29.14;43.70;101467.63;12139083;19;20222;-87
2023/08/22 13:14:09;;;;;;;;;;;29.80;43.30;;;29.07;43.60;101454.09;12139279;19;20016;-87
2023/08/22 13:18:11;;;;;;;;;;;29.90;43.30;;;29.19;43.47;101472.44;12141342;19;20968;-88
2023/08/22 13:22:12;;;;;;;;;;;29.80;42.90;;;29.08;43.49;101457.59;12142493;19;19949;-87
2023/08/22 13:26:14;;;;;;;;;;;29.80;43.10;;;29.08;43.15;101466.53;12149809;19;19933;-87
2023/08/22 13:30:15;;;;;;;;;;;29.80;43.10;;;29.00;43.34;101457.69;12153701;19;20259;-87
2023/08/22 13:34:18;;;;;;;;;;;29.70;42.80;;;29.01;43.12;101475.50;12154649;19;20042;-88
2023/08/22 13:38:19;;;;;;;;;;;29.60;42.60;;;28.97;43.16;101479.59;12150890;19;19927;-87
2023/08/22 13:42:20;;;;;;;;;;;29.60;42.80;;;28.95;43.49;101482.47;12156308;19;20199;-87
2023/08/22 13:46:22;;;;;;;;;;;29.50;43.00;;;28.97;43.32;101491.16;12149801;19;19934;-88
2023/08/22 13:50:23;;;;;;;;;;;29.50;43.00;;;28.72;43.41;101444.94;12155252;19;20276;-87
2023/08/22 13:54:25;;;;;;;;;;;29.50;43.00;;;28.85;43.25;101481.94;12152239;19;19922;-87
2023/08/22 13:58:26;;;;;;;;;;;29.40;42.80;;;28.91;43.08;101491.94;12152407;19;20205;-86
2023/08/22 14:02:28;;;;;;;;;;;29.40;43.00;;;28.90;43.24;101480.34;12149101;19;20972;-87
2023/08/22 14:06:30;;;;;;;;;;;29.50;43.40;;;28.90;43.21;101487.59;12147896;19;20682;-87
2023/08/22 14:10:32;;;;;;;;;;;29.50;43.40;;;28.88;42.99;101474.31;12151033;19;19931;-87
2023/08/22 14:14:33;;;;;;;;;;;29.50;43.20;;;28.92;43.42;101476.63;12151287;19;19919;-87
2023/08/22 14:18:35;;;;;;;;;;;29.50;43.20;;;28.75;43.09;101459.88;12154526;19;19930;-86
2023/08/22 14:22:36;;;;;;;;;;;29.50;43.30;;;28.85;43.18;101481.94;12151889;19;19958;-87
2023/08/22 14:26:37;;;;;;;;;;;29.40;42.80;;;28.82;43.13;101476.94;12150656;19;19919;-87
2023/08/22 14:30:39;;;;;;;;;;;29.40;43.10;;;28.72;43.29;101479.06;12155017;19;19915;-87
2023/08/22 14:34:40;;;;;;;;;;;29.40;43.10;;;28.81;42.93;101488.69;12150797;19;20246;-87
2023/08/22 14:38:41;;;;;;;;;;;29.40;43.00;;;28.76;43.15;101494.63;12152882;19;20669;-87
2023/08/22 14:42:43;;;;;;;;;;;29.40;43.00;;;28.52;43.20;101462.66;12150131;19;19946;-85
2023/08/22 14:46:44;;;;;;;;;;;29.30;43.10;;;28.78;43.27;101491.75;12144995;19;19923;-87
2023/08/22 14:50:46;;;;;;;;;;;29.30;43.10;;;28.62;43.26;101476.63;12148036;19;20295;-87
2023/08/22 14:54:48;;;;;;;;;;;29.30;42.80;;;28.42;43.32;101447.59;12144695;19;19915;-87
2023/08/22 14:58:49;;;;;;;;;;;29.30;43.00;;;28.74;43.33;101502.06;12149552;19;19945;-87
2023/08/22 15:02:51;;;;;;;;;;;29.30;43.10;;;28.74;43.22;101501.22;12148058;19;19950;-86
2023/08/22 15:06:53;;;;;;;;;;;29.30;43.10;;;28.73;43.18;101505.75;12146917;19;19923;-87
2023/08/22 15:10:55;;;;;;;;;;;29.20;42.80;;;28.73;42.96;101511.13;12146824;19;20006;-86
2023/08/22 15:14:57;;;;;;;;;;;29.20;42.90;;;28.62;42.82;101487.38;12146653;19;20642;-87
2023/08/22 15:19:05;;;;;;;;;;;29.20;42.90;;;28.68;43.08;101502.81;12142848;19;19934;-87
2023/08/22 15:23:07;;;;;;;;;;;29.20;43.00;;;28.52;42.98;101474.25;12140753;19;19922;-87
2023/08/22 15:27:10;;;;;;;;;;;29.20;43.30;;;28.69;42.77;101501.78;12134010;19;19960;-87
2023/08/22 15:31:11;;;;;;;;;;;29.20;42.90;;;28.72;42.96;101498.69;12136828;19;19922;-86
2023/08/22 15:35:12;;;;;;;;;;;29.20;42.90;;;28.66;42.97;101478.78;12132586;19;19951;-86
2023/08/22 15:39:14;;;;;;;;;;;29.20;42.90;;;28.42;43.16;101426.09;12137243;19;20343;-86
2023/08/22 15:43:19;;;;;;;;;;;29.20;43.10;;;28.59;42.76;101466.25;12140632;19;19930;-86
2023/08/22 15:47:21;;;;;;;;;;;29.20;43.20;;;28.61;42.66;101494.63;12136389;19;20272;-86
2023/08/22 15:51:22;;;;;;;;;;;29.20;43.20;;;28.53;43.15;101478.59;12139346;19;19923;-86
2023/08/22 15:55:24;;;;;;;;;;;29.10;43.10;;;28.62;42.97;101498.97;12139591;19;20292;-86
2023/08/22 15:59:25;;;;;;;;;;;29.10;43.20;;;28.55;42.69;101503.44;12140672;19;20725;-86
2023/08/22 16:03:27;;;;;;;;;;;29.10;43.10;;;28.50;42.66;101478.13;12144991;19;20456;-87
2023/08/22 16:07:28;;;;;;;;;;;29.10;43.20;;;28.53;42.97;101478.59;12146225;19;19926;-86
2023/08/22 16:11:30;;;;;;;;;;;29.10;43.00;;;28.54;43.03;101488.31;12146410;19;19941;-86
2023/08/22 16:15:31;;;;;;;;;;;29.10;43.10;;;28.52;42.89;101481.47;12143411;19;19927;-86
2023/08/22 16:19:33;;;;;;;;;;;29.10;43.10;;;28.45;42.64;101486.72;12145237;19;20564;-85
2023/08/22 16:23:34;;;;;;;;;;;29.10;43.10;;;28.43;42.91;101494.97;12144701;19;20461;-86
2023/08/22 16:27:36;;;;;;;;;;;29.10;43.20;;;28.43;42.85;101488.75;12137513;19;20229;-86
2023/08/22 16:31:37;;;;;;;;;;;29.00;43.30;;;28.49;42.87;101508.69;12139451;19;19946;-86
2023/08/22 16:35:39;;;;;;;;;;;29.00;43.20;;;28.48;42.62;101496.28;12144420;19;19918;-86
2023/08/22 16:39:40;;;;;;;;;;;29.00;43.20;;;28.40;42.91;101481.03;12130427;19;20199;-86
2023/08/22 16:43:41;;;;;;;;;;;29.00;43.50;;;28.27;43.32;101473.59;12139991;19;19923;-86
2023/08/22 16:47:43;;;;;;;;;;;28.90;43.60;;;28.40;42.98;101495.31;12134438;19;19930;-87
2023/08/22 16:51:44;;;;;;;;;;;28.90;43.60;;;28.37;43.07;101490.31;12135621;19;19926;-87
2023/08/22 16:55:46;;;;;;;;;;;28.80;43.70;;;28.32;42.94;101454.25;12132981;19;20304;-86
2023/08/22 16:59:48;;;;;;;;;;;28.80;43.90;;;28.26;42.95;101466.56;12138249;19;19931;-86
2023/08/22 17:03:49;;;;;;;;;;;28.80;44.00;;;28.19;43.10;101466.50;12137610;19;20263;-86
2023/08/22 17:07:50;;;;;;;;;;;28.80;43.80;;;28.07;43.03;101464.41;12132162;19;19918;-86
2023/08/22 17:11:52;;;;;;;;;;;28.70;43.70;;;28.15;42.75;101478.59;12139751;19;19926;-86
2023/08/22 17:15:59;;;;;;;;;;;28.70;43.50;;;28.12;43.12;101487.03;12136655;19;20279;-86
2023/08/22 17:20:04;;;;;;;;;;;28.70;43.60;;;28.13;42.80;101488.69;12140281;19;20171;-86
2023/08/22 17:24:05;;;;;;;;;;;28.60;43.50;;;28.03;43.18;101477.38;12139805;19;19943;-87
2023/08/22 17:28:06;;;;;;;;;;;28.60;43.40;;;28.06;42.85;101487.75;12136564;19;19930;-87
2023/08/22 17:32:08;;;;;;;;;;;28.50;43.70;;;28.03;43.09;101490.81;12137620;19;20658;-87
2023/08/22 17:36:12;;;;;;;;;;;28.50;43.70;;;28.00;43.19;101494.69;12136081;19;19938;-86
2023/08/22 17:40:13;;;;;;;;;;;28.50;43.70;;;27.99;43.17;101500.22;12139882;19;19933;-86
2023/08/22 17:44:16;;;;;;;;;;;28.40;43.70;;;27.91;43.21;101492.25;12136361;19;19919;-87
2023/08/22 17:48:17;;;;;;;;;;;28.40;43.80;;;27.71;43.01;101473.06;12138907;19;19933;-87
2023/08/22 17:52:19;;;;;;;;;;;28.30;43.80;;;27.73;42.97;101482.63;12135658;19;19922;-85
2023/08/22 17:56:21;;;;;;;;;;;28.20;43.70;;;27.63;42.86;101479.34;12134797;19;19982;-85
2023/08/22 18:00:24;;;;;;;;;;;28.10;43.70;;;27.48;42.82;101465.00;12140823;19;19926;-84
2023/08/22 18:04:25;;;;;;;;;;;28.00;43.70;;;27.41;43.35;101466.72;12139444;19;20439;-85
2023/08/22 18:08:27;;;;;;;;;;;27.90;43.90;;;27.28;43.27;101456.59;12146480;19;19927;-85
2023/08/22 18:12:29;;;;;;;;;;;27.80;43.90;;;27.28;43.45;101484.25;12148707;19;19926;-85